createdAt,value
2022-11-24T00:00:39.692Z,3.65
2022-11-24T00:05:41.081Z,3.95
2022-11-24T00:10:42.695Z,4.13
2022-11-24T00:15:44.079Z,3.58
2022-11-24T00:20:52.168Z,3.80
2022-11-24T00:25:53.562Z,3.03
2022-11-24T00:30:55.044Z,3.30
2022-11-24T00:35:58.383Z,3.00
2022-11-24T00:40:59.753Z,2.90
2022-11-24T00:46:01.284Z,2.80
2022-11-24T00:51:06.309Z,2.72
2022-11-24T00:56:08.603Z,2.78
2022-11-24T01:01:18.934Z,2.80
2022-11-24T01:06:25.859Z,2.90
2022-11-24T01:11:29.856Z,2.70
2022-11-24T01:16:34.421Z,3.63
2022-11-24T01:21:35.814Z,2.50
2022-11-24T01:26:38.395Z,2.42
2022-11-24T01:31:40.412Z,2.58
2022-11-24T01:36:41.815Z,2.20
2022-11-24T01:41:43.213Z,2.45
2022-11-24T01:46:48.504Z,2.30
2022-11-24T01:52:13.709Z,2.70
2022-11-24T01:57:21.986Z,2.63
2022-11-24T02:02:25.733Z,3.10
2022-11-24T02:07:28.022Z,2.75
2022-11-24T02:12:29.467Z,2.85
2022-11-24T02:17:30.846Z,3.03
2022-11-24T02:22:44.177Z,3.13
2022-11-24T02:32:55.114Z,3.08
2022-11-24T02:37:56.541Z,3.45
2022-11-24T02:43:04.565Z,3.70
2022-11-24T02:48:06.482Z,4.40
2022-11-24T02:53:07.917Z,3.75
2022-11-24T02:58:09.346Z,3.92
2022-11-24T03:03:11.311Z,4.43
2022-11-24T03:08:12.927Z,4.95
2022-11-24T03:13:14.466Z,4.20
2022-11-24T03:18:15.904Z,4.88
2022-11-24T03:23:17.300Z,4.78
2022-11-24T03:28:18.697Z,5.00
2022-11-24T03:33:20.065Z,5.40
2022-11-24T03:38:21.440Z,5.40
2022-11-24T03:43:22.894Z,5.15
2022-11-24T03:48:24.381Z,5.20
2022-11-24T03:53:27.829Z,5.03
2022-11-24T03:58:29.935Z,4.25
2022-11-24T04:03:31.388Z,4.82
2022-11-24T04:08:33.132Z,4.40
2022-11-24T04:13:34.497Z,5.78
2022-11-24T04:18:35.892Z,5.50
2022-11-24T04:23:37.260Z,4.80
2022-11-24T04:28:38.669Z,4.57
2022-11-24T04:33:40.344Z,4.80
2022-11-24T04:39:23.121Z,5.30
2022-11-24T04:44:03.196Z,4.95
2022-11-24T04:49:05.416Z,4.88
2022-11-24T04:54:08.106Z,5.22
2022-11-24T04:59:14.852Z,5.00
2022-11-24T05:04:16.477Z,5.07
2022-11-24T05:09:18.172Z,4.95
2022-11-24T05:14:19.571Z,5.10
2022-11-24T05:19:21.100Z,4.70
2022-11-24T05:24:22.463Z,4.68
2022-11-24T05:29:23.830Z,4.20
2022-11-24T05:34:25.418Z,4.40
2022-11-24T05:39:26.811Z,4.07
2022-11-24T05:44:28.237Z,4.78
2022-11-24T05:49:29.620Z,4.38
2022-11-24T05:54:31.087Z,4.63
2022-11-24T05:59:32.594Z,4.65
2022-11-24T06:04:34.383Z,4.68
2022-11-24T06:09:40.927Z,4.40
2022-11-24T06:14:42.460Z,4.82
2022-11-24T06:19:47.752Z,4.38
2022-11-24T06:24:50.560Z,4.80
2022-11-24T06:29:52.259Z,4.88
2022-11-24T06:34:53.620Z,4.78
2022-11-24T06:39:54.992Z,4.22
2022-11-24T06:44:56.374Z,4.50
2022-11-24T06:49:57.988Z,4.60
2022-11-24T06:54:59.385Z,4.32
2022-11-24T07:00:00.807Z,4.70
2022-11-24T07:05:02.185Z,4.68
2022-11-24T07:10:03.828Z,4.55
2022-11-24T07:15:05.811Z,4.28
2022-11-24T07:20:08.710Z,4.20
2022-11-24T07:25:10.792Z,4.07
2022-11-24T07:30:12.531Z,4.18
2022-11-24T07:35:13.994Z,3.35
2022-11-24T07:40:15.644Z,3.70
2022-11-24T07:45:17.062Z,3.80
2022-11-24T07:50:18.898Z,3.70
2022-11-24T07:55:20.290Z,3.70
2022-11-24T08:00:21.689Z,3.88
2022-11-24T08:05:23.149Z,3.80
2022-11-24T08:10:24.551Z,3.45
2022-11-24T08:15:26.010Z,4.68
2022-11-24T08:20:27.369Z,4.43
2022-11-24T08:25:32.975Z,4.40
2022-11-24T08:30:34.393Z,4.57
2022-11-24T08:35:37.976Z,4.47
2022-11-24T08:40:39.407Z,4.40
2022-11-24T08:45:41.867Z,4.22
2022-11-24T08:50:43.493Z,4.15
2022-11-24T08:55:44.868Z,4.20
2022-11-24T09:00:46.282Z,4.75
2022-11-24T09:05:52.528Z,4.40
2022-11-24T09:10:59.408Z,4.30
2022-11-24T09:16:12.515Z,3.80
2022-11-24T09:26:27.942Z,3.35
2022-11-24T09:31:31.604Z,3.72
2022-11-24T09:36:33.479Z,3.38
2022-11-24T09:41:39.516Z,3.72
2022-11-24T09:47:24.575Z,2.90
2022-11-24T09:53:01.019Z,2.88
2022-11-24T09:58:23.749Z,3.28
2022-11-24T10:03:43.244Z,2.30
2022-11-24T10:09:12.993Z,2.88
2022-11-24T10:14:26.252Z,3.40
2022-11-24T10:19:48.352Z,3.28
2022-11-24T10:25:21.808Z,3.30
2022-11-24T10:30:26.551Z,4.13
2022-11-24T10:35:37.409Z,3.13
2022-11-24T10:40:59.978Z,3.90
2022-11-24T10:46:16.374Z,3.25
2022-11-24T10:51:30.106Z,4.43
2022-11-24T10:56:42.367Z,3.72
2022-11-24T11:01:43.783Z,3.33
2022-11-24T11:06:45.600Z,4.13
2022-11-24T11:11:48.704Z,3.60
2022-11-24T11:16:59.441Z,2.90
2022-11-24T11:22:03.691Z,3.47
2022-11-24T11:27:26.348Z,2.75
2022-11-24T11:37:51.038Z,4.47
2022-11-24T11:43:21.939Z,3.72
2022-11-24T11:48:32.404Z,3.95
2022-11-24T11:53:49.754Z,3.40
2022-11-24T11:59:06.271Z,3.47
2022-11-24T12:04:41.672Z,3.60
2022-11-24T12:10:08.949Z,3.80
2022-11-24T12:15:41.553Z,4.22
2022-11-24T12:20:55.251Z,4.23
2022-11-24T12:26:22.569Z,3.97
2022-11-24T12:31:45.983Z,4.18
2022-11-24T12:37:02.271Z,3.78
2022-11-24T12:42:13.028Z,3.80
2022-11-24T12:47:23.618Z,3.42
2022-11-24T12:52:35.563Z,4.68
2022-11-24T12:58:00.024Z,4.35
2022-11-24T13:03:10.702Z,3.38
2022-11-24T13:08:14.130Z,3.40
2022-11-24T13:13:15.820Z,4.65
2022-11-24T13:18:55.680Z,4.05
2022-11-24T13:23:58.818Z,7.45
2022-11-24T13:34:38.548Z,4.40
2022-11-24T13:40:03.152Z,3.50
2022-11-24T13:45:25.462Z,4.22
2022-11-24T13:50:56.857Z,4.53
2022-11-24T13:56:00.371Z,4.55
2022-11-24T14:01:06.423Z,5.32
2022-11-24T14:06:34.218Z,7.20
2022-11-24T14:11:35.719Z,5.60
2022-11-24T14:16:37.143Z,4.57
2022-11-24T14:21:41.370Z,4.70
2022-11-24T14:26:46.947Z,5.68
2022-11-24T14:32:03.389Z,5.65
2022-11-24T14:37:04.772Z,4.28
2022-11-24T14:42:21.584Z,4.68
2022-11-24T14:47:37.463Z,4.32
2022-11-24T14:52:46.187Z,7.53
2022-11-24T14:57:47.565Z,6.20
2022-11-24T15:02:54.927Z,4.40
2022-11-24T15:08:03.375Z,5.45
2022-11-24T15:13:19.808Z,4.93
2022-11-24T15:18:31.894Z,4.90
2022-11-24T15:23:34.963Z,5.70
2022-11-24T15:28:36.527Z,6.28
2022-11-24T15:33:38.526Z,6.15
2022-11-24T15:38:39.912Z,6.13
2022-11-24T15:43:41.690Z,7.20
2022-11-24T15:48:43.102Z,5.90
2022-11-24T15:53:46.384Z,6.15
2022-11-24T15:58:48.375Z,6.13
2022-11-24T16:03:50.057Z,6.68
2022-11-24T16:08:52.556Z,7.32
2022-11-24T16:13:54.615Z,8.85
2022-11-24T16:18:56.208Z,6.40
2022-11-24T16:23:57.839Z,6.00
2022-11-24T16:28:59.403Z,11.95
2022-11-24T16:34:00.842Z,23.25
2022-11-24T16:39:02.267Z,19.05
2022-11-24T16:44:04.041Z,19.52
2022-11-24T16:49:05.534Z,28.30
2022-11-24T16:54:07.011Z,24.98
2022-11-24T16:59:08.489Z,18.52
2022-11-24T17:04:12.746Z,9.10
2022-11-24T17:09:15.075Z,7.60
2022-11-24T17:14:16.936Z,6.22
2022-11-24T17:19:18.499Z,6.20
2022-11-24T17:24:20.034Z,7.60
2022-11-24T17:29:21.423Z,6.55
2022-11-24T17:34:22.799Z,6.65
2022-11-24T17:39:25.383Z,7.30
2022-11-24T17:44:26.920Z,7.00
2022-11-24T17:49:28.466Z,6.80
2022-11-24T17:54:45.866Z,6.88
2022-11-24T17:59:48.038Z,6.55
2022-11-24T18:04:50.797Z,7.05
2022-11-24T18:09:56.735Z,4.95
2022-11-24T18:14:58.278Z,7.78
2022-11-24T18:19:59.684Z,7.72
2022-11-24T18:25:01.083Z,6.88
2022-11-24T18:30:03.776Z,8.07
2022-11-24T18:35:05.852Z,6.07
2022-11-24T18:40:08.129Z,4.82
2022-11-24T18:45:10.062Z,4.53
2022-11-24T18:50:11.482Z,5.20
2022-11-24T18:55:12.933Z,5.07
2022-11-24T19:00:14.571Z,4.72
2022-11-24T19:05:15.963Z,3.90
2022-11-24T19:10:17.410Z,5.65
2022-11-24T19:15:18.837Z,5.15
2022-11-24T19:20:20.406Z,4.85
2022-11-24T19:25:21.830Z,5.45
2022-11-24T19:30:23.307Z,4.85
2022-11-24T19:35:24.708Z,7.55
2022-11-24T19:40:26.158Z,6.97
2022-11-24T19:45:28.619Z,5.60
2022-11-24T19:50:30.038Z,5.70
2022-11-24T19:55:32.133Z,6.45
2022-11-24T20:00:33.524Z,6.67
2022-11-24T20:05:34.933Z,7.15
2022-11-24T20:10:36.623Z,6.47
2022-11-24T20:15:38.020Z,6.47
2022-11-24T20:20:42.534Z,6.55
2022-11-24T20:25:43.914Z,6.13
2022-11-24T20:30:45.364Z,5.70
2022-11-24T20:35:46.775Z,5.20
2022-11-24T20:40:48.141Z,5.30
2022-11-24T20:45:49.580Z,4.93
2022-11-24T20:50:51.606Z,5.45
2022-11-24T20:56:05.445Z,5.43
2022-11-24T21:01:10.348Z,4.75
2022-11-24T21:06:13.872Z,4.85
2022-11-24T21:11:15.419Z,4.18
2022-11-24T21:16:23.407Z,4.45
2022-11-24T21:21:27.280Z,4.25
2022-11-24T21:26:28.667Z,4.55
2022-11-24T21:31:30.119Z,4.40
2022-11-24T21:36:33.988Z,4.50
2022-11-24T21:41:35.418Z,3.83
2022-11-24T21:46:42.465Z,3.90
2022-11-24T21:51:47.502Z,3.97
2022-11-24T21:56:48.929Z,3.88
2022-11-24T22:01:50.367Z,3.38
2022-11-24T22:06:55.288Z,3.53
2022-11-24T22:11:56.664Z,3.17
2022-11-24T22:16:58.014Z,3.60
2022-11-24T22:21:59.383Z,4.22
2022-11-24T22:27:02.814Z,3.50
2022-11-24T22:32:04.675Z,3.65
2022-11-24T22:37:06.127Z,3.53
2022-11-24T22:42:07.534Z,3.60
2022-11-24T22:47:09.239Z,3.55
2022-11-24T22:52:10.598Z,3.30
2022-11-24T22:57:11.995Z,3.72
2022-11-24T23:02:13.450Z,3.40
2022-11-24T23:07:14.851Z,3.90
2022-11-24T23:12:18.298Z,3.03
2022-11-24T23:17:19.774Z,2.80
2022-11-24T23:22:21.138Z,3.13
2022-11-24T23:27:22.512Z,2.90
2022-11-24T23:32:23.914Z,3.30
2022-11-24T23:37:39.325Z,3.47
2022-11-24T23:42:47.803Z,2.90
2022-11-24T23:47:49.170Z,3.40
2022-11-24T23:52:50.527Z,3.38
2022-11-24T23:57:51.899Z,3.72
